Time;durP1;ratioP1;P1;durP2;ratioP2;P2;SDS_P1;SDS_P2;PMS_P1;PMS_P2;Temp;Humidity;BMP_temperature;BMP_pressure;BME280_temperature;BME280_humidity;BME280_pressure;Samples;Min_cycle;Max_cycle;Signal;HPM_P1;HPM_P2
2022/05/04 00:00:25;;;;;;;7.32;4.50;;;12.70;99.90;;;;;;4961678;28;20230;-81
2022/05/04 00:02:52;;;;;;;6.70;4.43;;;12.80;99.90;;;;;;4955032;28;20575;-81
2022/05/04 00:05:19;;;;;;;8.65;4.65;;;12.90;99.90;;;;;;4942383;29;20202;-82
2022/05/04 00:07:47;;;;;;;5.68;4.22;;;13.00;99.90;;;;;;4951709;28;20210;-82
2022/05/04 00:10:17;;;;;;;7.63;4.65;;;12.70;99.90;;;;;;4961986;28;20225;-81
2022/05/04 00:12:44;;;;;;;9.07;4.97;;;12.40;99.90;;;;;;4954185;28;20232;-82
2022/05/04 00:15:13;;;;;;;12.23;5.28;;;12.40;99.90;;;;;;4956744;28;20206;-82
2022/05/04 00:17:40;;;;;;;7.88;4.82;;;12.20;99.90;;;;;;4966585;28;20222;-82
2022/05/04 00:20:09;;;;;;;9.00;4.72;;;12.30;99.90;;;;;;4952038;28;20242;-81
2022/05/04 00:22:36;;;;;;;8.20;4.72;;;12.30;99.90;;;;;;4947504;28;20223;-81
2022/05/04 00:25:04;;;;;;;8.80;4.95;;;12.30;99.90;;;;;;4961162;28;20201;-82
2022/05/04 00:27:33;;;;;;;7.85;4.80;;;12.20;99.90;;;;;;4953857;28;20573;-81
2022/05/04 00:30:00;;;;;;;8.75;5.10;;;12.30;99.90;;;;;;4944644;29;20582;-81
2022/05/04 00:32:29;;;;;;;7.05;5.00;;;12.30;99.90;;;;;;4945585;28;20225;-81
2022/05/04 00:34:56;;;;;;;6.72;5.05;;;12.00;99.90;;;;;;4945724;29;20556;-81
2022/05/04 00:37:24;;;;;;;10.18;4.90;;;11.80;99.90;;;;;;4951191;28;20213;-81
2022/05/04 00:39:51;;;;;;;7.93;4.32;;;11.80;99.90;;;;;;4969199;28;20217;-81
2022/05/04 00:42:21;;;;;;;7.05;4.78;;;11.90;99.90;;;;;;4953900;28;20201;-81
2022/05/04 00:44:50;;;;;;;6.88;4.40;;;12.00;99.90;;;;;;4964882;28;20204;-81
2022/05/04 00:47:18;;;;;;;12.25;5.03;;;12.00;99.90;;;;;;4962130;28;20210;-81
2022/05/04 00:49:49;;;;;;;6.70;4.50;;;11.90;99.90;;;;;;4961188;28;20217;-81
2022/05/04 00:52:17;;;;;;;7.85;4.85;;;11.80;99.90;;;;;;4954696;28;20217;-81
2022/05/04 00:54:47;;;;;;;5.95;4.35;;;11.50;99.90;;;;;;4951218;28;20206;-81
2022/05/04 00:57:17;;;;;;;8.63;5.20;;;11.60;99.90;;;;;;4955189;28;20213;-82
2022/05/04 00:59:44;;;;;;;8.00;4.90;;;11.60;99.90;;;;;;4951494;28;20221;-81
2022/05/04 01:02:11;;;;;;;8.18;5.22;;;11.60;99.90;;;;;;4960999;28;20189;-81
2022/05/04 01:04:39;;;;;;;7.82;4.28;;;11.60;99.90;;;;;;4949280;28;20202;-81
2022/05/04 01:07:08;;;;;;;10.07;5.15;;;11.60;99.90;;;;;;4957510;28;20196;-81
2022/05/04 01:09:36;;;;;;;5.95;5.05;;;11.60;99.90;;;;;;4957472;28;20202;-81
2022/05/04 01:12:04;;;;;;;6.55;4.88;;;11.60;99.90;;;;;;4952965;28;20197;-81
2022/05/04 01:14:31;;;;;;;10.75;5.43;;;11.50;99.90;;;;;;4952287;29;20206;-81
2022/05/04 01:16:59;;;;;;;9.88;4.82;;;11.60;99.90;;;;;;4951800;28;20205;-81
2022/05/04 01:19:26;;;;;;;6.93;5.20;;;11.40;99.90;;;;;;4951508;29;20224;-81
2022/05/04 01:21:55;;;;;;;8.03;4.97;;;11.40;99.90;;;;;;4947502;28;20228;-81
2022/05/04 01:24:22;;;;;;;9.00;5.75;;;11.30;99.90;;;;;;4949374;29;20203;-81
2022/05/04 01:26:50;;;;;;;8.33;4.97;;;11.10;99.90;;;;;;4948282;28;20201;-81
2022/05/04 01:29:17;;;;;;;7.07;4.97;;;11.20;99.90;;;;;;4960731;28;20216;-81
2022/05/04 01:31:45;;;;;;;7.17;4.73;;;11.30;99.90;;;;;;4954248;28;20217;-81
2022/05/04 01:34:13;;;;;;;7.57;5.03;;;11.40;99.90;;;;;;4943255;29;20225;-81
2022/05/04 01:36:40;;;;;;;8.73;5.23;;;11.40;99.90;;;;;;4943688;28;20651;-81
2022/05/04 01:39:09;;;;;;;7.63;4.83;;;11.40;99.90;;;;;;4957672;28;20202;-81
2022/05/04 01:44:21;;;;;;;9.30;5.55;;;11.10;99.90;;;;;;4957209;28;20201;-81
2022/05/04 01:46:49;;;;;;;9.33;4.90;;;10.80;99.90;;;;;;4962016;28;20212;-81
2022/05/04 01:49:16;;;;;;;9.43;5.33;;;10.90;99.90;;;;;;4957035;28;20664;-82
2022/05/04 01:51:43;;;;;;;6.80;5.00;;;11.00;99.90;;;;;;4964883;28;20221;-81
2022/05/04 01:54:13;;;;;;;7.33;4.60;;;11.00;99.90;;;;;;4955016;28;20230;-81
2022/05/04 01:56:40;;;;;;;8.80;5.67;;;11.20;99.90;;;;;;4950611;28;20209;-81
2022/05/04 01:59:07;;;;;;;6.93;5.10;;;11.20;99.90;;;;;;4956102;29;20205;-81
2022/05/04 02:01:35;;;;;;;6.77;5.37;;;11.20;99.90;;;;;;4968405;28;20230;-81
2022/05/04 02:04:04;;;;;;;6.77;5.07;;;11.00;99.90;;;;;;4957578;28;20197;-81
2022/05/04 02:06:31;;;;;;;6.00;5.13;;;11.20;99.90;;;;;;4956920;28;20206;-81
2022/05/04 02:08:59;;;;;;;12.53;5.90;;;11.40;99.90;;;;;;4954244;29;20204;-81
2022/05/04 02:11:29;;;;;;;9.13;5.60;;;11.50;99.90;;;;;;4959619;28;20225;-81
2022/05/04 02:13:56;;;;;;;9.20;5.43;;;11.50;99.90;;;;;;4955666;28;20221;-81
2022/05/04 02:16:24;;;;;;;10.10;6.20;;;11.60;99.90;;;;;;4974605;28;20206;-81
2022/05/04 02:18:51;;;;;;;6.63;5.50;;;11.00;99.90;;;;;;4939893;28;20203;-81
2022/05/04 02:21:19;;;;;;;10.53;5.83;;;10.60;99.90;;;;;;4980007;23;20221;-83
2022/05/04 02:23:46;;;;;;;8.70;5.53;;;10.90;99.90;;;;;;4952565;29;20201;-80
2022/05/04 02:26:14;;;;;;;12.80;6.57;;;11.00;99.90;;;;;;4954813;28;20217;-80
2022/05/04 02:28:43;;;;;;;7.73;5.80;;;11.10;99.90;;;;;;4955577;29;20218;-80
2022/05/04 02:31:10;;;;;;;8.73;5.60;;;11.30;99.90;;;;;;4958732;29;20225;-80
2022/05/04 02:33:38;;;;;;;7.63;5.53;;;11.30;99.90;;;;;;4959275;29;20241;-80
2022/05/04 02:38:50;;;;;;;9.43;6.13;;;10.70;99.90;;;;;;4974475;28;20198;-83
2022/05/04 02:41:17;;;;;;;10.47;5.97;;;10.90;99.90;;;;;;4973819;28;20229;-80
2022/05/04 02:43:46;;;;;;;11.47;6.13;;;10.90;99.90;;;;;;4960900;29;20190;-80
2022/05/04 02:46:15;;;;;;;10.00;6.30;;;10.60;99.90;;;;;;4971622;28;20213;-80
2022/05/04 02:48:42;;;;;;;6.70;5.33;;;10.50;99.90;;;;;;4955188;28;20217;-80
2022/05/04 02:51:09;;;;;;;8.90;6.37;;;10.40;99.90;;;;;;4975170;28;20240;-80
2022/05/04 02:53:37;;;;;;;7.00;5.53;;;10.20;99.90;;;;;;4974969;28;20229;-80
2022/05/04 02:56:06;;;;;;;10.40;6.33;;;10.30;99.90;;;;;;4958241;29;20202;-80
2022/05/04 02:58:33;;;;;;;9.63;6.43;;;10.20;99.90;;;;;;4958438;29;20228;-81
2022/05/04 03:02:26;;;;;;;7.30;5.53;;;10.30;99.90;;;;;;4958416;29;20359;-81
2022/05/04 03:03:56;;;;;;;8.63;5.93;;;10.20;99.90;;;;;;4973116;28;20210;-81
2022/05/04 03:06:24;;;;;;;15.50;6.00;;;10.40;99.90;;;;;;4958660;28;20221;-81
2022/05/04 03:08:52;;;;;;;9.37;6.20;;;10.30;99.90;;;;;;4957965;29;20213;-81
2022/05/04 03:14:07;;;;;;;9.00;5.87;;;10.10;99.90;;;;;;4959043;28;20213;-81
2022/05/04 03:16:36;;;;;;;8.60;6.43;;;10.10;99.90;;;;;;4957113;29;20667;-80
2022/05/04 03:19:04;;;;;;;11.40;5.90;;;10.20;99.90;;;;;;4973772;28;20206;-80
2022/05/04 03:21:32;;;;;;;10.57;6.50;;;9.90;99.90;;;;;;4974910;28;20234;-80
2022/05/04 03:23:59;;;;;;;7.93;6.20;;;9.80;99.90;;;;;;4958860;28;20194;-80
2022/05/04 03:26:27;;;;;;;8.83;6.20;;;9.90;99.90;;;;;;4958308;28;20205;-81
2022/05/04 03:28:55;;;;;;;10.83;6.70;;;10.00;99.90;;;;;;4958949;29;20193;-81
2022/05/04 03:31:22;;;;;;;10.67;6.50;;;9.50;99.90;;;;;;4974245;28;20241;-81
2022/05/04 03:33:51;;;;;;;10.60;6.17;;;10.00;99.90;;;;;;4968755;28;20226;-81
2022/05/04 03:36:19;;;;;;;7.13;6.23;;;10.20;99.90;;;;;;4974239;28;20205;-81
2022/05/04 03:38:46;;;;;;;11.60;6.27;;;10.10;99.90;;;;;;4958384;29;20210;-82
2022/05/04 03:41:14;;;;;;;9.97;5.87;;;9.90;99.90;;;;;;4974639;28;20226;-81
2022/05/04 03:43:42;;;;;;;9.20;6.47;;;9.80;99.90;;;;;;4955937;28;20195;-81
2022/05/04 03:46:13;;;;;;;10.33;6.70;;;9.60;99.90;;;;;;4957178;29;20201;-81
2022/05/04 03:48:41;;;;;;;9.07;6.30;;;9.80;99.90;;;;;;4958297;29;20205;-81
2022/05/04 03:51:10;;;;;;;9.37;6.27;;;10.10;99.90;;;;;;4957916;28;20234;-81
2022/05/04 03:53:38;;;;;;;6.37;5.17;;;10.20;99.90;;;;;;4959138;29;20707;-81
2022/05/04 03:56:07;;;;;;;8.47;6.23;;;9.90;99.90;;;;;;4973580;28;20213;-81
2022/05/04 03:58:35;;;;;;;8.80;5.73;;;9.90;99.90;;;;;;4952932;29;20679;-81
2022/05/04 04:01:03;;;;;;;9.73;5.47;;;9.50;99.90;;;;;;4957590;28;20218;-81
2022/05/04 04:03:30;;;;;;;9.60;6.50;;;9.70;99.90;;;;;;4971009;28;20205;-81
2022/05/04 04:05:58;;;;;;;12.17;6.70;;;10.10;99.90;;;;;;4958376;28;20210;-82
2022/05/04 04:08:27;;;;;;;7.70;6.20;;;10.30;99.90;;;;;;4973383;28;20197;-81
2022/05/04 04:10:55;;;;;;;8.30;6.57;;;10.40;99.90;;;;;;4956680;29;20226;-82
2022/05/04 04:13:23;;;;;;;9.33;6.10;;;10.50;99.90;;;;;;4953726;28;20217;-82
2022/05/04 04:15:51;;;;;;;9.90;6.80;;;10.50;99.90;;;;;;4955210;29;20532;-81
2022/05/04 04:18:19;;;;;;;10.67;6.30;;;10.50;99.90;;;;;;4958166;28;20198;-82
2022/05/04 04:23:38;;;;;;;10.40;6.57;;;10.60;99.90;;;;;;4964735;28;20202;-82
2022/05/04 04:26:07;;;;;;;10.37;7.30;;;10.50;99.90;;;;;;4973689;28;20205;-81
2022/05/04 04:28:36;;;;;;;9.83;6.10;;;10.20;99.90;;;;;;4972527;28;20209;-81
2022/05/04 04:31:04;;;;;;;10.37;6.77;;;10.00;99.90;;;;;;4956171;29;20228;-83
2022/05/04 04:33:32;;;;;;;10.37;7.03;;;10.10;99.90;;;;;;4969722;28;20202;-83
2022/05/04 04:36:00;;;;;;;12.37;7.53;;;10.30;99.90;;;;;;4978311;28;20198;-83
2022/05/04 04:38:28;;;;;;;10.27;6.93;;;10.40;99.90;;;;;;4963646;28;20201;-83
2022/05/04 04:40:58;;;;;;;9.47;6.70;;;10.30;99.90;;;;;;4965297;29;20213;-83
2022/05/04 04:43:25;;;;;;;11.90;6.90;;;10.40;99.90;;;;;;4963850;29;20216;-83
2022/05/04 04:45:53;;;;;;;11.80;6.97;;;10.20;99.90;;;;;;4964755;29;20190;-83
2022/05/04 04:48:21;;;;;;;11.60;7.50;;;10.10;99.90;;;;;;4976440;28;20207;-83
2022/05/04 04:50:49;;;;;;;15.07;7.90;;;9.90;99.90;;;;;;4964426;28;20222;-83
2022/05/04 04:53:17;;;;;;;11.43;7.37;;;9.80;99.90;;;;;;4960780;29;20217;-83
2022/05/04 04:55:45;;;;;;;10.80;6.97;;;9.80;99.90;;;;;;4963550;28;20956;-83
2022/05/04 04:58:15;;;;;;;13.73;7.70;;;10.20;99.90;;;;;;4975843;28;20225;-83
2022/05/04 05:00:43;;;;;;;10.13;6.97;;;10.20;99.90;;;;;;4979108;28;20221;-83
2022/05/04 05:03:10;;;;;;;11.83;7.00;;;10.20;99.90;;;;;;4980300;28;20212;-83
2022/05/04 05:05:42;;;;;;;11.83;7.37;;;10.10;99.90;;;;;;4961491;28;20197;-83
2022/05/04 05:08:10;;;;;;;11.03;7.57;;;10.40;99.90;;;;;;4963605;28;20220;-83
2022/05/04 05:10:38;;;;;;;9.70;6.83;;;10.40;99.90;;;;;;4978310;28;20226;-83
2022/05/04 05:13:06;;;;;;;12.67;7.23;;;10.50;99.90;;;;;;4983423;28;20216;-83
2022/05/04 05:18:23;;;;;;;13.57;7.97;;;10.60;99.90;;;;;;4970225;29;20205;-83
2022/05/04 05:20:50;;;;;;;14.33;7.50;;;10.70;99.90;;;;;;4984173;28;20240;-83
2022/05/04 05:23:19;;;;;;;14.57;7.50;;;10.60;99.90;;;;;;4984714;28;20217;-83
2022/05/04 05:25:47;;;;;;;13.57;7.37;;;10.70;99.90;;;;;;4970732;28;20204;-83
2022/05/04 05:28:14;;;;;;;14.47;7.33;;;10.80;99.90;;;;;;4969440;29;20197;-83
2022/05/04 05:30:43;;;;;;;10.90;7.67;;;10.80;99.90;;;;;;4969996;28;20222;-83
2022/05/04 05:33:10;;;;;;;13.13;7.57;;;10.80;99.90;;;;;;4967482;28;20206;-83
2022/05/04 05:35:38;;;;;;;11.90;7.60;;;10.90;99.90;;;;;;4987745;28;20217;-83
2022/05/04 05:38:07;;;;;;;17.00;7.80;;;10.70;99.90;;;;;;4973050;29;20206;-83
2022/05/04 05:40:34;;;;;;;15.83;7.00;;;10.70;99.90;;;;;;4986846;28;20236;-83
2022/05/04 05:43:01;;;;;;;11.17;7.10;;;10.80;99.90;;;;;;4987158;28;20212;-83
2022/05/04 05:45:29;;;;;;;13.57;7.30;;;10.90;99.90;;;;;;4988266;28;20212;-83
2022/05/04 05:47:58;;;;;;;12.90;7.83;;;10.90;99.90;;;;;;4984897;28;20209;-83
2022/05/04 05:50:25;;;;;;;12.87;7.90;;;10.80;99.90;;;;;;4984639;28;20202;-83
2022/05/04 05:52:53;;;;;;;13.70;8.23;;;10.80;99.90;;;;;;4985013;28;20209;-83
2022/05/04 05:55:20;;;;;;;12.47;7.80;;;10.90;99.90;;;;;;4971038;29;20229;-83
2022/05/04 05:57:48;;;;;;;11.40;7.03;;;11.00;99.90;;;;;;4969815;28;20214;-85
2022/05/04 06:00:16;;;;;;;15.17;7.83;;;11.10;99.90;;;;;;4984886;28;20210;-83
2022/05/04 06:02:45;;;;;;;12.03;7.30;;;11.10;99.90;;;;;;4987924;28;20208;-83
2022/05/04 06:05:14;;;;;;;11.17;7.50;;;11.10;99.90;;;;;;4968848;29;20198;-83
2022/05/04 06:07:41;;;;;;;12.47;7.27;;;11.20;99.90;;;;;;4989029;28;20713;-83
2022/05/04 06:10:09;;;;;;;12.93;8.43;;;11.20;99.90;;;;;;4989460;28;20204;-83
2022/05/04 06:12:38;;;;;;;11.90;6.87;;;11.20;99.90;;;;;;4989273;28;20212;-83
2022/05/04 06:15:08;;;;;;;14.50;7.93;;;11.10;99.90;;;;;;4991200;28;20225;-83
2022/05/04 06:17:36;;;;;;;12.63;7.97;;;11.20;99.90;;;;;;4987857;28;20216;-83
2022/05/04 06:20:04;;;;;;;12.17;7.30;;;11.20;99.90;;;;;;4984936;28;20217;-83
2022/05/04 06:22:33;;;;;;;12.67;7.83;;;11.40;99.90;;;;;;4977407;28;20230;-83
2022/05/04 06:25:00;;;;;;;12.47;7.23;;;11.40;99.90;;;;;;4978446;29;20197;-83
2022/05/04 06:27:29;;;;;;;14.63;7.60;;;11.50;99.90;;;;;;4972017;28;20212;-83
2022/05/04 06:35:26;;;;;;;12.70;8.33;;;11.10;99.90;;;;;;4958974;28;20228;-83
2022/05/04 06:37:56;;;;;;;15.07;8.27;;;11.30;99.90;;;;;;4979185;28;20202;-83
2022/05/04 06:40:23;;;;;;;11.37;7.00;;;11.40;99.90;;;;;;4977315;28;20213;-83
2022/05/04 06:42:51;;;;;;;13.53;7.23;;;11.50;99.90;;;;;;4962093;29;20204;-83
2022/05/04 06:45:18;;;;;;;13.43;8.20;;;11.70;99.90;;;;;;4977946;28;20190;-83
2022/05/04 06:47:45;;;;;;;14.55;8.48;;;11.40;99.90;;;;;;4962121;28;20213;-83
2022/05/04 06:50:13;;;;;;;14.90;8.30;;;11.60;99.90;;;;;;4963346;29;20210;-83
2022/05/04 06:52:41;;;;;;;13.30;8.70;;;11.60;99.90;;;;;;4963055;29;20205;-83
2022/05/04 06:55:10;;;;;;;16.03;8.43;;;11.70;99.90;;;;;;4961091;28;20210;-83
2022/05/04 06:57:38;;;;;;;15.40;8.63;;;11.70;99.90;;;;;;4960996;28;20787;-83
2022/05/04 07:00:07;;;;;;;14.73;8.30;;;11.90;99.90;;;;;;4961044;29;20209;-83
2022/05/04 07:02:35;;;;;;;13.20;8.52;;;11.90;99.90;;;;;;4962214;29;20625;-83
2022/05/04 07:05:04;;;;;;;17.40;8.75;;;12.00;99.90;;;;;;4961704;28;20202;-83
2022/05/04 07:07:32;;;;;;;15.50;9.13;;;12.00;99.90;;;;;;4978272;28;20206;-83
2022/05/04 07:09:59;;;;;;;14.87;9.43;;;12.00;99.90;;;;;;4961177;29;20206;-83
2022/05/04 07:12:28;;;;;;;13.23;8.40;;;11.90;99.90;;;;;;4958874;28;20233;-83
2022/05/04 07:14:57;;;;;;;17.52;9.23;;;12.00;99.90;;;;;;4961112;29;20216;-83
2022/05/04 07:17:25;;;;;;;14.70;8.80;;;12.20;99.90;;;;;;4976037;28;20601;-83
2022/05/04 07:19:53;;;;;;;12.27;8.60;;;12.40;99.90;;;;;;4960485;29;20197;-83
2022/05/04 07:22:21;;;;;;;16.48;9.50;;;12.40;99.90;;;;;;4961104;29;20234;-83
2022/05/04 07:24:48;;;;;;;19.90;9.82;;;12.30;99.90;;;;;;4961684;29;20200;-83
2022/05/04 07:27:16;;;;;;;16.95;9.50;;;12.30;99.90;;;;;;4973104;28;20210;-83
2022/05/04 07:29:46;;;;;;;17.27;9.85;;;12.20;99.90;;;;;;4973018;28;20198;-83
2022/05/04 07:32:14;;;;;;;14.77;9.40;;;12.40;99.90;;;;;;4962401;28;20218;-83
2022/05/04 07:34:41;;;;;;;18.38;9.77;;;12.50;99.90;;;;;;4956700;28;20228;-83
2022/05/04 07:37:09;;;;;;;16.52;10.40;;;12.50;99.90;;;;;;4975459;28;20217;-83
2022/05/04 07:42:22;;;;;;;17.00;10.35;;;12.70;99.90;;;;;;4970516;28;20218;-83
2022/05/04 07:44:51;;;;;;;15.32;10.00;;;12.90;99.90;;;;;;4976205;28;20209;-83
2022/05/04 07:47:19;;;;;;;13.07;9.80;;;12.80;99.90;;;;;;4957836;29;20206;-83
2022/05/04 07:49:48;;;;;;;13.90;9.60;;;12.80;99.90;;;;;;4961654;28;20216;-83
2022/05/04 07:52:16;;;;;;;16.30;10.10;;;13.00;99.90;;;;;;4958090;28;20591;-83
2022/05/04 07:54:43;;;;;;;16.83;9.98;;;13.10;99.90;;;;;;4951849;29;20206;-83
2022/05/04 07:57:11;;;;;;;14.55;9.77;;;13.00;99.90;;;;;;4974352;28;20240;-83
2022/05/04 07:59:44;;;;;;;13.82;10.40;;;13.10;99.90;;;;;;4959709;29;20202;-83
2022/05/04 08:05:14;;;;;;;16.70;11.10;;;13.20;99.90;;;;;;4977535;28;20318;-82
2022/05/04 08:07:41;;;;;;;17.98;11.40;;;13.20;99.90;;;;;;4978609;28;20221;-82
2022/05/04 08:10:09;;;;;;;18.90;12.45;;;13.20;99.90;;;;;;4961467;29;20194;-82
2022/05/04 08:12:39;;;;;;;16.48;11.38;;;13.40;99.90;;;;;;4961790;29;20213;-82
2022/05/04 08:15:07;;;;;;;14.30;10.98;;;13.30;99.90;;;;;;4960564;28;20205;-82
2022/05/04 08:17:36;;;;;;;19.92;10.35;;;13.30;99.90;;;;;;4973830;28;20202;-82
2022/05/04 08:20:04;;;;;;;20.63;13.15;;;13.10;99.90;;;;;;4962971;28;20209;-82
2022/05/04 08:22:32;;;;;;;16.70;12.07;;;13.30;99.90;;;;;;4974162;28;20230;-82
2022/05/04 08:24:59;;;;;;;17.38;10.50;;;13.60;99.90;;;;;;4971798;28;20675;-82
2022/05/04 08:27:28;;;;;;;18.45;11.43;;;13.60;99.90;;;;;;4978297;28;20202;-81
2022/05/04 08:29:56;;;;;;;16.75;10.77;;;13.40;99.90;;;;;;4972784;28;20597;-81
2022/05/04 08:32:26;;;;;;;17.92;10.82;;;13.60;99.90;;;;;;4958854;28;20226;-82
2022/05/04 08:34:58;;;;;;;16.17;11.52;;;13.60;99.90;;;;;;4959687;29;20205;-81
2022/05/04 08:37:28;;;;;;;15.38;12.07;;;13.80;99.90;;;;;;4977849;28;20217;-81
2022/05/04 08:39:58;;;;;;;17.95;12.68;;;13.90;99.90;;;;;;4981210;28;20205;-81
2022/05/04 08:42:25;;;;;;;17.35;11.75;;;13.80;99.90;;;;;;4977960;28;20225;-81
2022/05/04 08:44:55;;;;;;;14.05;10.55;;;13.80;99.90;;;;;;4977216;28;20213;-81
2022/05/04 08:47:23;;;;;;;15.88;10.70;;;13.90;99.90;;;;;;4975721;28;20656;-81
2022/05/04 08:49:51;;;;;;;16.95;11.10;;;14.10;99.70;;;;;;4960720;28;20207;-81
2022/05/04 08:52:21;;;;;;;16.73;11.27;;;14.10;99.90;;;;;;4975435;28;20234;-82
2022/05/04 08:54:53;;;;;;;15.20;11.48;;;14.30;99.60;;;;;;4976657;28;20206;-82
2022/05/04 08:57:21;;;;;;;18.45;12.10;;;13.80;99.90;;;;;;4960614;28;20233;-82
2022/05/04 08:59:49;;;;;;;16.38;10.68;;;14.00;99.90;;;;;;4997622;23;20183;-83
2022/05/04 09:02:16;;;;;;;23.67;12.02;;;14.20;99.70;;;;;;4970260;28;20244;-82
2022/05/04 09:04:44;;;;;;;14.52;10.98;;;14.50;99.90;;;;;;4967494;28;20661;-81
2022/05/04 09:07:26;;;;;;;16.15;11.50;;;14.20;99.60;;;;;;4987034;28;20244;-80
2022/05/04 09:09:54;;;;;;;17.70;12.35;;;14.40;99.50;;;;;;4968669;28;20701;-79
2022/05/04 09:12:21;;;;;;;21.42;12.10;;;14.50;99.30;;;;;;4983220;28;20207;-80
2022/05/04 09:14:49;;;;;;;18.70;11.95;;;14.60;99.30;;;;;;4970548;28;20201;-79
2022/05/04 09:17:17;;;;;;;19.65;12.25;;;14.60;99.10;;;;;;4965525;28;20220;-82
2022/05/04 09:20:45;;;;;;;16.65;12.05;;;14.60;98.80;;;;;;4964422;28;20204;-79
2022/05/04 09:22:50;;;;;;;16.55;11.50;;;14.70;99.50;;;;;;4969034;28;20206;-79
2022/05/04 09:25:18;;;;;;;16.70;11.80;;;14.80;98.80;;;;;;4987107;28;20193;-79
2022/05/04 09:27:47;;;;;;;17.08;11.82;;;15.10;98.80;;;;;;4967007;28;20687;-80
2022/05/04 09:30:23;;;;;;;18.52;11.75;;;15.00;98.90;;;;;;4968535;28;20691;-79
2022/05/04 09:32:51;;;;;;;20.77;12.77;;;15.10;98.70;;;;;;4982470;28;20220;-80
2022/05/04 09:35:19;;;;;;;17.33;12.57;;;15.00;98.30;;;;;;4966011;28;20198;-80
2022/05/04 09:46:09;;;;;;;19.27;13.30;;;15.40;99.40;;;;;;4967949;28;20189;-82
2022/05/04 09:48:37;;;;;;;17.15;12.40;;;15.40;98.00;;;;;;4965549;28;20213;-82
2022/05/04 09:51:06;;;;;;;17.73;13.13;;;15.60;97.20;;;;;;4975912;28;20232;-82
2022/05/04 09:53:36;;;;;;;18.42;13.70;;;15.60;96.90;;;;;;4983432;28;20205;-81
2022/05/04 09:56:04;;;;;;;18.77;13.93;;;15.60;96.60;;;;;;4978278;28;20218;-84
2022/05/04 09:58:32;;;;;;;14.93;12.88;;;15.40;96.60;;;;;;4979147;28;20205;-82
2022/05/04 10:00:59;;;;;;;19.55;14.23;;;15.30;96.40;;;;;;4968295;28;20220;-83
2022/05/04 10:03:32;;;;;;;17.67;14.18;;;14.80;97.30;;;;;;4984422;28;20208;-79
2022/05/04 10:06:02;;;;;;;20.42;14.50;;;14.60;97.80;;;;;;4970786;28;20544;-81
2022/05/04 10:08:30;;;;;;;18.83;13.82;;;15.20;98.20;;;;;;4977528;28;20212;-79
2022/05/04 10:10:59;;;;;;;16.15;12.68;;;15.50;97.80;;;;;;4976610;28;20213;-80
2022/05/04 10:13:28;;;;;;;18.63;14.02;;;15.60;97.60;;;;;;4978648;28;20204;-81
2022/05/04 10:15:57;;;;;;;21.73;14.93;;;15.50;97.10;;;;;;4979821;28;20222;-80
2022/05/04 10:18:30;;;;;;;20.60;14.77;;;15.90;96.70;;;;;;4984878;28;20696;-80
2022/05/04 10:21:05;;;;;;;18.60;14.27;;;15.80;96.20;;;;;;4973496;28;20683;-80
2022/05/04 10:23:38;;;;;;;18.75;13.13;;;16.00;96.50;;;;;;4976843;28;20569;-80
2022/05/04 10:26:17;;;;;;;17.90;13.70;;;16.10;96.40;;;;;;4976006;28;20552;-80
2022/05/04 10:30:30;;;;;;;20.25;14.50;;;16.20;96.40;;;;;;4991571;28;20200;-81
2022/05/04 10:31:34;;;;;;;19.27;14.20;;;16.20;95.70;;;;;;4977152;28;20225;-80
2022/05/04 10:34:03;;;;;;;17.17;14.40;;;16.10;95.20;;;;;;4973669;28;20209;-80
2022/05/04 10:36:32;;;;;;;18.02;13.55;;;16.00;95.20;;;;;;4990726;28;20204;-82
2022/05/04 10:39:02;;;;;;;20.60;15.20;;;15.80;95.90;;;;;;4972078;28;20204;-81
2022/05/04 10:41:38;;;;;;;22.27;14.43;;;16.00;95.30;;;;;;4976063;28;20232;-82
2022/05/04 10:44:09;;;;;;;21.95;13.93;;;15.80;95.40;;;;;;4980588;28;20208;-81
2022/05/04 10:46:40;;;;;;;18.30;14.35;;;15.80;95.20;;;;;;4967398;28;20570;-81
2022/05/04 10:49:13;;;;;;;19.48;14.68;;;15.50;95.80;;;;;;4970085;28;20204;-81
2022/05/04 10:51:45;;;;;;;23.05;15.98;;;15.80;95.90;;;;;;4971229;28;20228;-81
2022/05/04 10:54:18;;;;;;;18.85;15.30;;;15.90;96.20;;;;;;4988722;28;20213;-81
2022/05/04 10:56:51;;;;;;;21.30;17.02;;;15.80;96.00;;;;;;4974164;28;20221;-81
2022/05/04 10:59:25;;;;;;;21.02;16.90;;;15.80;95.60;;;;;;4976380;28;20216;-81
2022/05/04 11:01:56;;;;;;;22.65;16.77;;;15.90;95.30;;;;;;4971851;28;20717;-81
2022/05/04 11:04:25;;;;;;;19.45;17.38;;;15.70;95.50;;;;;;4973338;28;20571;-82
2022/05/04 11:07:06;;;;;;;22.48;17.60;;;16.10;95.30;;;;;;4957963;29;20202;-81
2022/05/04 11:09:37;;;;;;;21.58;17.25;;;16.10;95.00;;;;;;4957178;28;20201;-81
2022/05/04 11:12:07;;;;;;;25.73;21.60;;;16.00;95.90;;;;;;4969114;28;20205;-81
2022/05/04 11:14:37;;;;;;;25.20;21.27;;;15.80;94.90;;;;;;4972423;28;20547;-81
2022/05/04 11:17:13;;;;;;;24.92;21.85;;;15.90;95.00;;;;;;4976471;28;20224;-83
2022/05/04 11:19:44;;;;;;;30.17;22.70;;;15.70;94.90;;;;;;4992717;28;20213;-82
2022/05/04 11:22:12;;;;;;;23.45;21.05;;;15.80;94.80;;;;;;4975293;28;20578;-80
2022/05/04 11:24:40;;;;;;;25.85;19.83;;;16.10;94.60;;;;;;4961856;28;20201;-81
2022/05/04 11:27:09;;;;;;;20.75;18.20;;;16.30;94.40;;;;;;4957025;29;20205;-81
2022/05/04 11:29:36;;;;;;;20.88;15.95;;;16.40;94.00;;;;;;4964470;29;20198;-81
2022/05/04 11:32:06;;;;;;;20.23;15.90;;;16.40;94.20;;;;;;4978517;28;20180;-81
2022/05/04 11:34:36;;;;;;;21.63;16.42;;;16.50;94.30;;;;;;4977102;28;20205;-81
2022/05/04 11:37:07;;;;;;;19.17;16.75;;;16.70;94.10;;;;;;4980260;28;20209;-81
2022/05/04 11:39:38;;;;;;;20.58;16.33;;;16.80;93.80;;;;;;4977944;28;20209;-81
2022/05/04 11:42:08;;;;;;;22.27;16.90;;;17.00;93.50;;;;;;4966789;28;20202;-81
2022/05/04 11:44:37;;;;;;;21.55;17.83;;;16.80;93.10;;;;;;4993057;28;20585;-81
2022/05/04 11:47:06;;;;;;;20.77;18.00;;;17.10;93.20;;;;;;4977957;28;20202;-83
2022/05/04 11:49:35;;;;;;;24.25;18.42;;;16.90;93.70;;;;;;4975303;28;20193;-82
2022/05/04 11:52:05;;;;;;;22.30;20.00;;;17.30;92.90;;;;;;4974753;28;20205;-81
2022/05/04 11:54:33;;;;;;;22.55;20.17;;;17.40;92.30;;;;;;4977804;28;20193;-81
2022/05/04 11:57:00;;;;;;;24.13;20.63;;;18.00;91.40;;;;;;4992206;28;20193;-81
2022/05/04 11:59:32;;;;;;;22.40;20.17;;;17.80;91.10;;;;;;4975542;28;20200;-81
2022/05/04 12:02:00;;;;;;;23.75;20.77;;;18.30;90.60;;;;;;4989715;28;20204;-81
2022/05/04 12:04:28;;;;;;;23.63;20.73;;;18.00;90.30;;;;;;4957513;29;20206;-81
2022/05/04 12:07:00;;;;;;;23.70;21.20;;;18.10;90.60;;;;;;4958404;29;20193;-81
2022/05/04 12:09:27;;;;;;;23.60;21.23;;;17.90;90.50;;;;;;4965988;28;20209;-81
2022/05/04 12:11:55;;;;;;;21.13;18.92;;;17.80;90.10;;;;;;4967281;28;20222;-81
2022/05/04 12:14:23;;;;;;;21.95;19.70;;;17.90;90.10;;;;;;4975659;28;20197;-81
2022/05/04 12:16:52;;;;;;;22.13;17.98;;;18.40;88.50;;;;;;4992185;28;20200;-82
2022/05/04 12:19:19;;;;;;;20.17;16.85;;;18.50;87.50;;;;;;4976543;28;20216;-81
2022/05/04 12:21:48;;;;;;;18.88;17.08;;;18.20;85.20;;;;;;4991502;28;20721;-81
2022/05/04 12:24:16;;;;;;;19.80;17.02;;;18.20;86.70;;;;;;4975805;28;20205;-82
2022/05/04 12:26:44;;;;;;;17.52;15.70;;;18.30;84.50;;;;;;4991812;28;20201;-81
2022/05/04 12:34:46;;;;;;;16.10;14.60;;;18.00;82.30;;;;;;4969996;28;20200;-81
2022/05/04 12:37:14;;;;;;;16.00;14.50;;;18.60;82.10;;;;;;4975033;28;20667;-81
2022/05/04 12:39:42;;;;;;;16.92;14.75;;;19.20;82.20;;;;;;4975621;28;20193;-81
2022/05/04 12:42:09;;;;;;;15.70;13.13;;;19.70;78.70;;;;;;4964951;28;20683;-82
2022/05/04 12:44:37;;;;;;;16.88;12.93;;;19.70;74.60;;;;;;4976307;28;20208;-81
2022/05/04 12:47:06;;;;;;;14.73;13.07;;;19.80;73.70;;;;;;4976167;28;20203;-84
2022/05/04 12:49:34;;;;;;;14.02;12.55;;;20.30;72.90;;;;;;4979534;28;20197;-81
2022/05/04 12:52:02;;;;;;;14.65;13.13;;;19.70;70.10;;;;;;4969371;28;20533;-81
2022/05/04 12:54:29;;;;;;;14.20;12.32;;;19.90;67.90;;;;;;4985727;28;20217;-83
2022/05/04 12:56:57;;;;;;;15.13;13.48;;;19.90;66.80;;;;;;4971753;28;20204;-82
2022/05/04 12:59:24;;;;;;;15.30;12.70;;;19.00;68.30;;;;;;4986683;28;20224;-81
2022/05/04 13:01:52;;;;;;;14.65;12.98;;;19.20;70.30;;;;;;4966079;28;20240;-81
2022/05/04 13:04:21;;;;;;;13.90;12.15;;;19.60;70.90;;;;;;4972256;28;20202;-81
2022/05/04 13:06:48;;;;;;;13.85;12.52;;;20.00;69.60;;;;;;4966324;28;20201;-81
2022/05/04 13:09:15;;;;;;;15.27;11.75;;;19.50;70.10;;;;;;4969515;28;20205;-81
2022/05/04 13:11:43;;;;;;;13.43;11.75;;;19.90;70.40;;;;;;4966353;28;20213;-81
2022/05/04 13:14:10;;;;;;;12.48;11.20;;;19.60;67.30;;;;;;4968752;28;20197;-81
2022/05/04 13:16:38;;;;;;;13.18;10.38;;;19.50;65.90;;;;;;4971535;28;20714;-81
2022/05/04 13:19:06;;;;;;;13.45;11.40;;;19.70;66.90;;;;;;4983248;28;20232;-82
2022/05/04 13:21:35;;;;;;;13.43;10.98;;;19.40;68.40;;;;;;4967627;28;20217;-83